sensor_id;sensor_type;location;lat;lon;timestamp;P1;durP1;ratioP1;P2;durP2;ratioP2
42006;SDS011;27696;42.704;23.304;2023-11-21T00:02:01;67.28;;;39.28;;
42006;SDS011;27696;42.704;23.304;2023-11-21T00:04:27;65.13;;;39.72;;
42006;SDS011;27696;42.704;23.304;2023-11-21T00:06:52;68.78;;;40.92;;
42006;SDS011;27696;42.704;23.304;2023-11-21T00:09:19;68.47;;;39.08;;
42006;SDS011;27696;42.704;23.304;2023-11-21T00:11:44;65.53;;;39.35;;
42006;SDS011;27696;42.704;23.304;2023-11-21T00:14:13;60.53;;;37.83;;
42006;SDS011;27696;42.704;23.304;2023-11-21T00:16:40;66.35;;;39.30;;
42006;SDS011;27696;42.704;23.304;2023-11-21T00:19:06;62.88;;;37.70;;
42006;SDS011;27696;42.704;23.304;2023-11-21T00:21:31;64.90;;;38.50;;
42006;SDS011;27696;42.704;23.304;2023-11-21T00:23:57;72.95;;;40.53;;
42006;SDS011;27696;42.704;23.304;2023-11-21T00:26:22;68.00;;;41.47;;
42006;SDS011;27696;42.704;23.304;2023-11-21T00:28:49;76.00;;;41.28;;
42006;SDS011;27696;42.704;23.304;2023-11-21T00:31:15;78.60;;;42.55;;
42006;SDS011;27696;42.704;23.304;2023-11-21T00:33:40;68.53;;;41.00;;
42006;SDS011;27696;42.704;23.304;2023-11-21T00:36:06;68.68;;;39.83;;
42006;SDS011;27696;42.704;23.304;2023-11-21T00:38:34;60.67;;;37.08;;
42006;SDS011;27696;42.704;23.304;2023-11-21T00:41:04;57.80;;;34.65;;
42006;SDS011;27696;42.704;23.304;2023-11-21T00:43:30;61.38;;;35.63;;
42006;SDS011;27696;42.704;23.304;2023-11-21T00:45:56;55.70;;;34.97;;
42006;SDS011;27696;42.704;23.304;2023-11-21T00:48:21;64.32;;;36.63;;
42006;SDS011;27696;42.704;23.304;2023-11-21T00:50:47;62.88;;;35.95;;
42006;SDS011;27696;42.704;23.304;2023-11-21T00:53:12;61.35;;;36.38;;
42006;SDS011;27696;42.704;23.304;2023-11-21T00:55:37;57.75;;;33.30;;
42006;SDS011;27696;42.704;23.304;2023-11-21T00:58:05;54.03;;;31.65;;
42006;SDS011;27696;42.704;23.304;2023-11-21T01:00:32;59.53;;;35.85;;
42006;SDS011;27696;42.704;23.304;2023-11-21T01:03:00;80.25;;;42.35;;
42006;SDS011;27696;42.704;23.304;2023-11-21T01:05:25;75.80;;;41.65;;
42006;SDS011;27696;42.704;23.304;2023-11-21T01:07:51;72.32;;;40.78;;
42006;SDS011;27696;42.704;23.304;2023-11-21T01:10:17;73.03;;;40.83;;
42006;SDS011;27696;42.704;23.304;2023-11-21T01:12:42;71.70;;;40.60;;
42006;SDS011;27696;42.704;23.304;2023-11-21T01:15:08;61.38;;;37.75;;
42006;SDS011;27696;42.704;23.304;2023-11-21T01:17:34;64.85;;;35.47;;
42006;SDS011;27696;42.704;23.304;2023-11-21T01:20:00;63.00;;;37.00;;
42006;SDS011;27696;42.704;23.304;2023-11-21T01:22:26;59.25;;;34.80;;
42006;SDS011;27696;42.704;23.304;2023-11-21T01:24:53;57.50;;;34.15;;
42006;SDS011;27696;42.704;23.304;2023-11-21T01:27:18;59.35;;;36.25;;
42006;SDS011;27696;42.704;23.304;2023-11-21T01:29:44;64.38;;;37.92;;
42006;SDS011;27696;42.704;23.304;2023-11-21T01:32:10;60.40;;;36.60;;
42006;SDS011;27696;42.704;23.304;2023-11-21T01:34:35;62.05;;;37.20;;
42006;SDS011;27696;42.704;23.304;2023-11-21T01:37:01;63.42;;;37.10;;
42006;SDS011;27696;42.704;23.304;2023-11-21T01:39:29;59.70;;;36.95;;
42006;SDS011;27696;42.704;23.304;2023-11-21T01:41:55;63.40;;;37.22;;
42006;SDS011;27696;42.704;23.304;2023-11-21T01:44:22;61.63;;;38.65;;
42006;SDS011;27696;42.704;23.304;2023-11-21T01:46:48;60.35;;;37.90;;
42006;SDS011;27696;42.704;23.304;2023-11-21T01:49:14;59.72;;;36.72;;
42006;SDS011;27696;42.704;23.304;2023-11-21T01:51:41;54.55;;;33.70;;
42006;SDS011;27696;42.704;23.304;2023-11-21T01:54:06;54.30;;;32.03;;
42006;SDS011;27696;42.704;23.304;2023-11-21T01:56:32;55.25;;;33.25;;
42006;SDS011;27696;42.704;23.304;2023-11-21T01:58:57;53.47;;;32.00;;
42006;SDS011;27696;42.704;23.304;2023-11-21T02:01:23;50.42;;;26.55;;
42006;SDS011;27696;42.704;23.304;2023-11-21T02:03:48;42.28;;;24.38;;
42006;SDS011;27696;42.704;23.304;2023-11-21T02:06:14;40.53;;;22.92;;
42006;SDS011;27696;42.704;23.304;2023-11-21T02:08:39;33.30;;;22.00;;
42006;SDS011;27696;42.704;23.304;2023-11-21T02:11:07;36.88;;;22.63;;
42006;SDS011;27696;42.704;23.304;2023-11-21T02:13:34;34.38;;;21.30;;
42006;SDS011;27696;42.704;23.304;2023-11-21T02:16:00;34.60;;;22.15;;
42006;SDS011;27696;42.704;23.304;2023-11-21T02:18:26;35.67;;;22.65;;
42006;SDS011;27696;42.704;23.304;2023-11-21T02:20:53;30.48;;;20.85;;
42006;SDS011;27696;42.704;23.304;2023-11-21T02:23:20;37.10;;;22.80;;
42006;SDS011;27696;42.704;23.304;2023-11-21T02:25:46;38.50;;;23.67;;
42006;SDS011;27696;42.704;23.304;2023-11-21T02:28:12;34.75;;;22.85;;
42006;SDS011;27696;42.704;23.304;2023-11-21T02:30:40;32.90;;;20.35;;
42006;SDS011;27696;42.704;23.304;2023-11-21T02:33:06;33.42;;;21.67;;
42006;SDS011;27696;42.704;23.304;2023-11-21T02:35:32;38.22;;;21.88;;
42006;SDS011;27696;42.704;23.304;2023-11-21T02:37:57;34.78;;;21.70;;
42006;SDS011;27696;42.704;23.304;2023-11-21T02:40:23;37.75;;;23.90;;
42006;SDS011;27696;42.704;23.304;2023-11-21T02:42:50;39.08;;;24.63;;
42006;SDS011;27696;42.704;23.304;2023-11-21T02:45:19;44.35;;;25.02;;
42006;SDS011;27696;42.704;23.304;2023-11-21T02:47:49;38.00;;;22.85;;
42006;SDS011;27696;42.704;23.304;2023-11-21T02:50:14;35.65;;;22.33;;
42006;SDS011;27696;42.704;23.304;2023-11-21T02:52:40;32.17;;;21.60;;
42006;SDS011;27696;42.704;23.304;2023-11-21T02:55:05;36.53;;;22.65;;
42006;SDS011;27696;42.704;23.304;2023-11-21T02:57:32;38.25;;;22.90;;
42006;SDS011;27696;42.704;23.304;2023-11-21T02:59:58;32.38;;;20.52;;
42006;SDS011;27696;42.704;23.304;2023-11-21T03:02:24;33.70;;;19.95;;
42006;SDS011;27696;42.704;23.304;2023-11-21T03:04:50;33.15;;;19.75;;
42006;SDS011;27696;42.704;23.304;2023-11-21T03:07:16;29.52;;;20.00;;
42006;SDS011;27696;42.704;23.304;2023-11-21T03:09:42;28.88;;;17.58;;
42006;SDS011;27696;42.704;23.304;2023-11-21T03:12:08;31.77;;;18.95;;
42006;SDS011;27696;42.704;23.304;2023-11-21T03:14:34;31.73;;;19.27;;
42006;SDS011;27696;42.704;23.304;2023-11-21T03:17:00;31.48;;;19.52;;
42006;SDS011;27696;42.704;23.304;2023-11-21T03:19:25;31.17;;;19.15;;
42006;SDS011;27696;42.704;23.304;2023-11-21T03:21:51;29.50;;;19.10;;
42006;SDS011;27696;42.704;23.304;2023-11-21T03:24:18;32.67;;;19.75;;
42006;SDS011;27696;42.704;23.304;2023-11-21T03:26:45;34.65;;;19.67;;
42006;SDS011;27696;42.704;23.304;2023-11-21T03:29:12;30.15;;;18.35;;
42006;SDS011;27696;42.704;23.304;2023-11-21T03:31:37;30.35;;;18.95;;
42006;SDS011;27696;42.704;23.304;2023-11-21T03:34:03;35.97;;;20.98;;
42006;SDS011;27696;42.704;23.304;2023-11-21T03:36:28;33.00;;;19.35;;
42006;SDS011;27696;42.704;23.304;2023-11-21T03:38:54;30.63;;;19.80;;
42006;SDS011;27696;42.704;23.304;2023-11-21T03:41:20;36.85;;;18.20;;
42006;SDS011;27696;42.704;23.304;2023-11-21T03:43:46;34.05;;;19.90;;
42006;SDS011;27696;42.704;23.304;2023-11-21T03:46:11;30.38;;;19.13;;
42006;SDS011;27696;42.704;23.304;2023-11-21T03:48:37;30.42;;;19.98;;
42006;SDS011;27696;42.704;23.304;2023-11-21T03:51:03;33.83;;;19.63;;
42006;SDS011;27696;42.704;23.304;2023-11-21T03:53:29;32.78;;;19.23;;
42006;SDS011;27696;42.704;23.304;2023-11-21T03:55:54;36.88;;;19.38;;
42006;SDS011;27696;42.704;23.304;2023-11-21T03:58:19;32.00;;;20.23;;
42006;SDS011;27696;42.704;23.304;2023-11-21T04:00:46;31.95;;;20.15;;
42006;SDS011;27696;42.704;23.304;2023-11-21T04:03:13;36.70;;;22.08;;
42006;SDS011;27696;42.704;23.304;2023-11-21T04:05:39;34.85;;;21.27;;
42006;SDS011;27696;42.704;23.304;2023-11-21T04:08:06;38.83;;;21.70;;
42006;SDS011;27696;42.704;23.304;2023-11-21T04:10:31;34.70;;;20.73;;
42006;SDS011;27696;42.704;23.304;2023-11-21T04:12:57;35.50;;;20.33;;
42006;SDS011;27696;42.704;23.304;2023-11-21T04:15:22;34.03;;;19.33;;
42006;SDS011;27696;42.704;23.304;2023-11-21T04:17:47;38.38;;;20.52;;
42006;SDS011;27696;42.704;23.304;2023-11-21T04:20:13;31.13;;;18.33;;
42006;SDS011;27696;42.704;23.304;2023-11-21T04:22:39;36.70;;;19.52;;
42006;SDS011;27696;42.704;23.304;2023-11-21T04:25:11;34.58;;;17.80;;
42006;SDS011;27696;42.704;23.304;2023-11-21T04:27:39;33.53;;;18.92;;
42006;SDS011;27696;42.704;23.304;2023-11-21T04:30:05;29.23;;;18.52;;
42006;SDS011;27696;42.704;23.304;2023-11-21T04:32:31;29.58;;;17.50;;
42006;SDS011;27696;42.704;23.304;2023-11-21T04:34:56;30.65;;;17.63;;
42006;SDS011;27696;42.704;23.304;2023-11-21T04:37:21;30.13;;;17.88;;
42006;SDS011;27696;42.704;23.304;2023-11-21T04:39:47;28.10;;;17.60;;
42006;SDS011;27696;42.704;23.304;2023-11-21T04:42:13;29.27;;;18.13;;
42006;SDS011;27696;42.704;23.304;2023-11-21T04:44:38;29.00;;;18.92;;
42006;SDS011;27696;42.704;23.304;2023-11-21T04:47:06;28.90;;;18.55;;
42006;SDS011;27696;42.704;23.304;2023-11-21T04:49:32;32.28;;;20.15;;
42006;SDS011;27696;42.704;23.304;2023-11-21T04:51:58;28.75;;;18.45;;
42006;SDS011;27696;42.704;23.304;2023-11-21T04:54:24;34.03;;;19.23;;
42006;SDS011;27696;42.704;23.304;2023-11-21T04:56:49;29.48;;;19.48;;
42006;SDS011;27696;42.704;23.304;2023-11-21T04:59:15;37.40;;;19.45;;
42006;SDS011;27696;42.704;23.304;2023-11-21T05:01:40;34.03;;;20.27;;
42006;SDS011;27696;42.704;23.304;2023-11-21T05:04:06;34.38;;;20.58;;
42006;SDS011;27696;42.704;23.304;2023-11-21T05:06:32;38.88;;;20.90;;
42006;SDS011;27696;42.704;23.304;2023-11-21T05:08:57;33.33;;;20.50;;
42006;SDS011;27696;42.704;23.304;2023-11-21T05:11:27;41.05;;;20.90;;
42006;SDS011;27696;42.704;23.304;2023-11-21T05:13:53;33.88;;;21.40;;
42006;SDS011;27696;42.704;23.304;2023-11-21T05:16:21;35.13;;;21.17;;
42006;SDS011;27696;42.704;23.304;2023-11-21T05:18:47;43.67;;;22.08;;
42006;SDS011;27696;42.704;23.304;2023-11-21T05:21:12;36.58;;;22.23;;
42006;SDS011;27696;42.704;23.304;2023-11-21T05:23:38;34.15;;;19.95;;
42006;SDS011;27696;42.704;23.304;2023-11-21T05:26:03;33.35;;;21.92;;
42006;SDS011;27696;42.704;23.304;2023-11-21T05:28:29;33.58;;;21.35;;
42006;SDS011;27696;42.704;23.304;2023-11-21T05:30:54;44.78;;;23.08;;
42006;SDS011;27696;42.704;23.304;2023-11-21T05:33:20;32.85;;;21.67;;
42006;SDS011;27696;42.704;23.304;2023-11-21T05:35:45;43.38;;;22.98;;
42006;SDS011;27696;42.704;23.304;2023-11-21T05:38:13;39.65;;;22.17;;
42006;SDS011;27696;42.704;23.304;2023-11-21T05:40:38;38.97;;;22.75;;
42006;SDS011;27696;42.704;23.304;2023-11-21T05:43:03;40.60;;;22.33;;
42006;SDS011;27696;42.704;23.304;2023-11-21T05:45:30;40.35;;;23.27;;
42006;SDS011;27696;42.704;23.304;2023-11-21T05:47:55;36.42;;;22.40;;
42006;SDS011;27696;42.704;23.304;2023-11-21T05:50:21;38.65;;;23.60;;
42006;SDS011;27696;42.704;23.304;2023-11-21T05:52:48;42.58;;;23.38;;
42006;SDS011;27696;42.704;23.304;2023-11-21T05:55:14;39.50;;;23.10;;
42006;SDS011;27696;42.704;23.304;2023-11-21T05:57:40;32.55;;;21.80;;
42006;SDS011;27696;42.704;23.304;2023-11-21T06:00:10;44.33;;;24.25;;
42006;SDS011;27696;42.704;23.304;2023-11-21T06:02:45;35.60;;;22.05;;
42006;SDS011;27696;42.704;23.304;2023-11-21T06:05:11;41.92;;;24.23;;
42006;SDS011;27696;42.704;23.304;2023-11-21T06:07:37;31.48;;;21.35;;
42006;SDS011;27696;42.704;23.304;2023-11-21T06:10:03;42.13;;;24.45;;
42006;SDS011;27696;42.704;23.304;2023-11-21T06:12:34;41.20;;;23.80;;
42006;SDS011;27696;42.704;23.304;2023-11-21T06:15:03;42.30;;;23.88;;
42006;SDS011;27696;42.704;23.304;2023-11-21T06:17:33;39.95;;;24.38;;
42006;SDS011;27696;42.704;23.304;2023-11-21T06:20:01;38.78;;;25.38;;
42006;SDS011;27696;42.704;23.304;2023-11-21T06:22:39;44.00;;;25.25;;
42006;SDS011;27696;42.704;23.304;2023-11-21T06:25:06;42.13;;;25.02;;
42006;SDS011;27696;42.704;23.304;2023-11-21T06:27:33;54.72;;;29.38;;
42006;SDS011;27696;42.704;23.304;2023-11-21T06:29:59;58.40;;;30.83;;
42006;SDS011;27696;42.704;23.304;2023-11-21T06:32:25;50.35;;;29.75;;
42006;SDS011;27696;42.704;23.304;2023-11-21T06:34:51;49.90;;;29.75;;
42006;SDS011;27696;42.704;23.304;2023-11-21T06:37:19;49.55;;;28.60;;
42006;SDS011;27696;42.704;23.304;2023-11-21T06:39:46;54.28;;;28.92;;
42006;SDS011;27696;42.704;23.304;2023-11-21T06:42:11;43.53;;;28.27;;
42006;SDS011;27696;42.704;23.304;2023-11-21T06:44:37;49.33;;;27.27;;
42006;SDS011;27696;42.704;23.304;2023-11-21T06:47:02;43.35;;;28.00;;
42006;SDS011;27696;42.704;23.304;2023-11-21T06:49:28;47.65;;;28.27;;
42006;SDS011;27696;42.704;23.304;2023-11-21T06:51:54;53.25;;;28.58;;
42006;SDS011;27696;42.704;23.304;2023-11-21T06:54:20;44.38;;;29.15;;
42006;SDS011;27696;42.704;23.304;2023-11-21T06:56:46;52.22;;;29.40;;
42006;SDS011;27696;42.704;23.304;2023-11-21T06:59:12;44.72;;;29.73;;
42006;SDS011;27696;42.704;23.304;2023-11-21T07:01:38;54.25;;;29.70;;
42006;SDS011;27696;42.704;23.304;2023-11-21T07:04:06;60.63;;;30.50;;
42006;SDS011;27696;42.704;23.304;2023-11-21T07:06:32;55.30;;;30.50;;
42006;SDS011;27696;42.704;23.304;2023-11-21T07:08:57;56.65;;;31.60;;
42006;SDS011;27696;42.704;23.304;2023-11-21T07:11:23;50.60;;;30.95;;
42006;SDS011;27696;42.704;23.304;2023-11-21T07:13:50;62.03;;;35.20;;
42006;SDS011;27696;42.704;23.304;2023-11-21T07:16:15;52.30;;;33.05;;
42006;SDS011;27696;42.704;23.304;2023-11-21T07:18:41;62.97;;;34.85;;
42006;SDS011;27696;42.704;23.304;2023-11-21T07:21:07;54.45;;;34.20;;
42006;SDS011;27696;42.704;23.304;2023-11-21T07:23:33;60.78;;;36.28;;
42006;SDS011;27696;42.704;23.304;2023-11-21T07:25:59;63.47;;;35.53;;
42006;SDS011;27696;42.704;23.304;2023-11-21T07:28:24;65.00;;;36.38;;
42006;SDS011;27696;42.704;23.304;2023-11-21T07:30:52;63.15;;;35.40;;
42006;SDS011;27696;42.704;23.304;2023-11-21T07:33:17;57.05;;;34.88;;
42006;SDS011;27696;42.704;23.304;2023-11-21T07:35:43;55.25;;;34.97;;
42006;SDS011;27696;42.704;23.304;2023-11-21T07:38:08;61.33;;;34.28;;
42006;SDS011;27696;42.704;23.304;2023-11-21T07:40:34;58.78;;;34.05;;
42006;SDS011;27696;42.704;23.304;2023-11-21T07:42:59;58.22;;;33.67;;
42006;SDS011;27696;42.704;23.304;2023-11-21T07:45:25;54.92;;;32.67;;
42006;SDS011;27696;42.704;23.304;2023-11-21T07:47:53;60.35;;;33.25;;
42006;SDS011;27696;42.704;23.304;2023-11-21T07:50:19;54.75;;;33.63;;
42006;SDS011;27696;42.704;23.304;2023-11-21T07:52:45;60.30;;;32.08;;
42006;SDS011;27696;42.704;23.304;2023-11-21T07:55:11;55.65;;;31.48;;
42006;SDS011;27696;42.704;23.304;2023-11-21T07:57:36;60.08;;;31.77;;
42006;SDS011;27696;42.704;23.304;2023-11-21T08:00:03;47.15;;;30.77;;
42006;SDS011;27696;42.704;23.304;2023-11-21T08:02:31;49.40;;;30.63;;
42006;SDS011;27696;42.704;23.304;2023-11-21T08:04:57;55.17;;;33.42;;
42006;SDS011;27696;42.704;23.304;2023-11-21T08:07:22;56.40;;;31.05;;
42006;SDS011;27696;42.704;23.304;2023-11-21T08:09:48;53.05;;;31.13;;
42006;SDS011;27696;42.704;23.304;2023-11-21T08:12:15;50.78;;;31.35;;
42006;SDS011;27696;42.704;23.304;2023-11-21T08:14:40;51.67;;;33.65;;
42006;SDS011;27696;42.704;23.304;2023-11-21T08:17:06;51.40;;;33.70;;
42006;SDS011;27696;42.704;23.304;2023-11-21T08:19:31;60.55;;;34.15;;
42006;SDS011;27696;42.704;23.304;2023-11-21T08:21:58;51.92;;;33.25;;
42006;SDS011;27696;42.704;23.304;2023-11-21T08:24:24;52.78;;;33.13;;
42006;SDS011;27696;42.704;23.304;2023-11-21T08:26:50;52.65;;;32.47;;
42006;SDS011;27696;42.704;23.304;2023-11-21T08:29:17;53.80;;;32.67;;
42006;SDS011;27696;42.704;23.304;2023-11-21T08:31:43;57.10;;;31.30;;
42006;SDS011;27696;42.704;23.304;2023-11-21T08:34:11;51.83;;;30.85;;
42006;SDS011;27696;42.704;23.304;2023-11-21T08:36:41;51.45;;;32.28;;
42006;SDS011;27696;42.704;23.304;2023-11-21T08:39:07;52.95;;;30.30;;
42006;SDS011;27696;42.704;23.304;2023-11-21T08:41:34;52.40;;;31.20;;
42006;SDS011;27696;42.704;23.304;2023-11-21T08:44:00;54.58;;;31.33;;
42006;SDS011;27696;42.704;23.304;2023-11-21T08:46:25;55.58;;;33.65;;
42006;SDS011;27696;42.704;23.304;2023-11-21T08:48:51;52.85;;;34.85;;
42006;SDS011;27696;42.704;23.304;2023-11-21T08:51:17;47.83;;;34.38;;
42006;SDS011;27696;42.704;23.304;2023-11-21T08:53:43;49.65;;;35.38;;
42006;SDS011;27696;42.704;23.304;2023-11-21T08:56:12;58.42;;;37.55;;
42006;SDS011;27696;42.704;23.304;2023-11-21T08:58:39;59.55;;;39.50;;
42006;SDS011;27696;42.704;23.304;2023-11-21T09:01:04;51.55;;;37.38;;
42006;SDS011;27696;42.704;23.304;2023-11-21T09:03:32;55.60;;;37.35;;
42006;SDS011;27696;42.704;23.304;2023-11-21T09:05:59;56.15;;;38.70;;
42006;SDS011;27696;42.704;23.304;2023-11-21T09:08:25;53.67;;;36.85;;
42006;SDS011;27696;42.704;23.304;2023-11-21T09:10:53;53.85;;;36.95;;
42006;SDS011;27696;42.704;23.304;2023-11-21T09:13:18;50.75;;;35.85;;
42006;SDS011;27696;42.704;23.304;2023-11-21T09:15:44;52.78;;;35.08;;
42006;SDS011;27696;42.704;23.304;2023-11-21T09:18:13;53.83;;;34.92;;
42006;SDS011;27696;42.704;23.304;2023-11-21T09:20:38;46.70;;;33.08;;
42006;SDS011;27696;42.704;23.304;2023-11-21T09:23:04;50.88;;;32.05;;
42006;SDS011;27696;42.704;23.304;2023-11-21T09:25:29;50.20;;;32.35;;
42006;SDS011;27696;42.704;23.304;2023-11-21T09:27:55;47.38;;;30.45;;
42006;SDS011;27696;42.704;23.304;2023-11-21T09:30:22;56.88;;;30.38;;
42006;SDS011;27696;42.704;23.304;2023-11-21T09:32:49;54.83;;;31.15;;
42006;SDS011;27696;42.704;23.304;2023-11-21T09:35:15;59.80;;;31.15;;
42006;SDS011;27696;42.704;23.304;2023-11-21T09:37:43;47.53;;;29.65;;
42006;SDS011;27696;42.704;23.304;2023-11-21T09:40:10;50.75;;;29.55;;
42006;SDS011;27696;42.704;23.304;2023-11-21T09:42:39;48.17;;;30.85;;
42006;SDS011;27696;42.704;23.304;2023-11-21T09:47:40;50.17;;;32.90;;
42006;SDS011;27696;42.704;23.304;2023-11-21T09:50:07;48.72;;;31.02;;
42006;SDS011;27696;42.704;23.304;2023-11-21T09:55:44;50.65;;;31.13;;
42006;SDS011;27696;42.704;23.304;2023-11-21T09:58:11;43.35;;;32.28;;
42006;SDS011;27696;42.704;23.304;2023-11-21T10:00:46;55.28;;;34.10;;
42006;SDS011;27696;42.704;23.304;2023-11-21T10:03:13;52.25;;;32.92;;
42006;SDS011;27696;42.704;23.304;2023-11-21T10:05:39;48.17;;;32.38;;
42006;SDS011;27696;42.704;23.304;2023-11-21T10:08:10;49.78;;;34.22;;
42006;SDS011;27696;42.704;23.304;2023-11-21T10:10:36;51.97;;;32.22;;
42006;SDS011;27696;42.704;23.304;2023-11-21T10:13:04;53.35;;;33.92;;
42006;SDS011;27696;42.704;23.304;2023-11-21T10:15:33;52.45;;;32.80;;
42006;SDS011;27696;42.704;23.304;2023-11-21T10:18:00;49.22;;;31.98;;
42006;SDS011;27696;42.704;23.304;2023-11-21T10:20:28;53.40;;;33.40;;
42006;SDS011;27696;42.704;23.304;2023-11-21T10:22:54;54.92;;;33.55;;
42006;SDS011;27696;42.704;23.304;2023-11-21T10:25:21;46.03;;;32.65;;
42006;SDS011;27696;42.704;23.304;2023-11-21T10:27:47;50.88;;;31.42;;
42006;SDS011;27696;42.704;23.304;2023-11-21T10:30:17;48.60;;;32.10;;
42006;SDS011;27696;42.704;23.304;2023-11-21T10:32:42;45.92;;;30.08;;
42006;SDS011;27696;42.704;23.304;2023-11-21T10:35:08;51.65;;;30.58;;
42006;SDS011;27696;42.704;23.304;2023-11-21T10:37:37;42.08;;;30.27;;
42006;SDS011;27696;42.704;23.304;2023-11-21T10:40:08;51.40;;;30.45;;
42006;SDS011;27696;42.704;23.304;2023-11-21T10:42:37;42.80;;;28.95;;
42006;SDS011;27696;42.704;23.304;2023-11-21T10:45:04;43.97;;;27.92;;
42006;SDS011;27696;42.704;23.304;2023-11-21T10:47:37;42.80;;;27.25;;
42006;SDS011;27696;42.704;23.304;2023-11-21T10:50:03;35.17;;;24.42;;
42006;SDS011;27696;42.704;23.304;2023-11-21T10:52:31;32.78;;;25.02;;
42006;SDS011;27696;42.704;23.304;2023-11-21T10:54:56;39.45;;;25.13;;
42006;SDS011;27696;42.704;23.304;2023-11-21T10:57:28;40.45;;;25.30;;
42006;SDS011;27696;42.704;23.304;2023-11-21T10:59:54;37.45;;;25.67;;
42006;SDS011;27696;42.704;23.304;2023-11-21T11:02:24;37.03;;;24.65;;
42006;SDS011;27696;42.704;23.304;2023-11-21T11:04:53;34.40;;;23.50;;
42006;SDS011;27696;42.704;23.304;2023-11-21T11:07:21;37.88;;;23.55;;
42006;SDS011;27696;42.704;23.304;2023-11-21T11:09:47;35.35;;;22.35;;
42006;SDS011;27696;42.704;23.304;2023-11-21T11:12:13;32.63;;;22.38;;
42006;SDS011;27696;42.704;23.304;2023-11-21T11:14:40;42.10;;;22.05;;
42006;SDS011;27696;42.704;23.304;2023-11-21T11:17:06;30.85;;;21.73;;
42006;SDS011;27696;42.704;23.304;2023-11-21T11:19:34;28.58;;;19.17;;
42006;SDS011;27696;42.704;23.304;2023-11-21T11:27:09;28.23;;;17.65;;
42006;SDS011;27696;42.704;23.304;2023-11-21T11:35:14;29.05;;;19.88;;
42006;SDS011;27696;42.704;23.304;2023-11-21T11:37:44;30.23;;;19.95;;
42006;SDS011;27696;42.704;23.304;2023-11-21T11:40:12;29.25;;;19.48;;
42006;SDS011;27696;42.704;23.304;2023-11-21T11:42:38;28.85;;;20.67;;
42006;SDS011;27696;42.704;23.304;2023-11-21T11:45:25;35.65;;;20.65;;
42006;SDS011;27696;42.704;23.304;2023-11-21T11:47:55;32.97;;;20.98;;
42006;SDS011;27696;42.704;23.304;2023-11-21T11:50:22;32.13;;;20.35;;
42006;SDS011;27696;42.704;23.304;2023-11-21T11:52:48;30.90;;;19.77;;
42006;SDS011;27696;42.704;23.304;2023-11-21T11:55:16;28.83;;;19.23;;
42006;SDS011;27696;42.704;23.304;2023-11-21T11:57:51;30.70;;;19.38;;
42006;SDS011;27696;42.704;23.304;2023-11-21T12:02:53;35.20;;;22.08;;
42006;SDS011;27696;42.704;23.304;2023-11-21T12:05:21;34.33;;;21.98;;
42006;SDS011;27696;42.704;23.304;2023-11-21T12:07:51;35.58;;;22.27;;
42006;SDS011;27696;42.704;23.304;2023-11-21T12:10:19;34.50;;;24.90;;
42006;SDS011;27696;42.704;23.304;2023-11-21T12:12:49;35.10;;;25.20;;
42006;SDS011;27696;42.704;23.304;2023-11-21T12:15:17;40.47;;;26.38;;
42006;SDS011;27696;42.704;23.304;2023-11-21T12:17:44;43.20;;;27.50;;
42006;SDS011;27696;42.704;23.304;2023-11-21T12:20:10;45.78;;;27.88;;
42006;SDS011;27696;42.704;23.304;2023-11-21T12:22:41;36.38;;;25.85;;
42006;SDS011;27696;42.704;23.304;2023-11-21T12:25:08;37.83;;;25.60;;
42006;SDS011;27696;42.704;23.304;2023-11-21T12:27:33;40.30;;;26.98;;
42006;SDS011;27696;42.704;23.304;2023-11-21T12:30:00;39.35;;;24.77;;
42006;SDS011;27696;42.704;23.304;2023-11-21T12:32:25;37.75;;;25.27;;
42006;SDS011;27696;42.704;23.304;2023-11-21T12:34:51;34.97;;;25.35;;
42006;SDS011;27696;42.704;23.304;2023-11-21T12:37:17;35.05;;;24.25;;
42006;SDS011;27696;42.704;23.304;2023-11-21T12:39:43;35.13;;;24.38;;
42006;SDS011;27696;42.704;23.304;2023-11-21T12:42:09;35.38;;;25.20;;
42006;SDS011;27696;42.704;23.304;2023-11-21T12:44:35;36.35;;;25.15;;
42006;SDS011;27696;42.704;23.304;2023-11-21T12:47:02;34.30;;;23.05;;
42006;SDS011;27696;42.704;23.304;2023-11-21T12:49:28;35.42;;;22.98;;
42006;SDS011;27696;42.704;23.304;2023-11-21T12:51:53;28.17;;;21.08;;
42006;SDS011;27696;42.704;23.304;2023-11-21T12:54:19;32.90;;;20.98;;
42006;SDS011;27696;42.704;23.304;2023-11-21T12:56:45;29.38;;;21.60;;
42006;SDS011;27696;42.704;23.304;2023-11-21T12:59:14;26.83;;;19.85;;
42006;SDS011;27696;42.704;23.304;2023-11-21T13:01:42;25.20;;;18.67;;
42006;SDS011;27696;42.704;23.304;2023-11-21T13:04:08;30.05;;;19.88;;
42006;SDS011;27696;42.704;23.304;2023-11-21T13:06:35;31.10;;;19.75;;
42006;SDS011;27696;42.704;23.304;2023-11-21T13:09:07;28.08;;;20.17;;
42006;SDS011;27696;42.704;23.304;2023-11-21T13:11:36;28.08;;;20.77;;
42006;SDS011;27696;42.704;23.304;2023-11-21T13:14:02;28.40;;;20.10;;
42006;SDS011;27696;42.704;23.304;2023-11-21T13:16:28;26.20;;;19.00;;
42006;SDS011;27696;42.704;23.304;2023-11-21T13:18:55;27.90;;;19.38;;
42006;SDS011;27696;42.704;23.304;2023-11-21T13:21:21;28.45;;;18.25;;
42006;SDS011;27696;42.704;23.304;2023-11-21T13:23:47;27.55;;;18.92;;
42006;SDS011;27696;42.704;23.304;2023-11-21T13:26:15;29.35;;;19.67;;
42006;SDS011;27696;42.704;23.304;2023-11-21T13:28:40;26.13;;;19.02;;
42006;SDS011;27696;42.704;23.304;2023-11-21T13:31:11;27.13;;;19.40;;
42006;SDS011;27696;42.704;23.304;2023-11-21T13:33:53;29.38;;;20.60;;
42006;SDS011;27696;42.704;23.304;2023-11-21T13:36:29;27.45;;;20.80;;
42006;SDS011;27696;42.704;23.304;2023-11-21T13:38:57;32.90;;;22.27;;
42006;SDS011;27696;42.704;23.304;2023-11-21T13:43:58;32.60;;;22.15;;
42006;SDS011;27696;42.704;23.304;2023-11-21T13:46:51;33.13;;;23.50;;
42006;SDS011;27696;42.704;23.304;2023-11-21T13:49:17;33.60;;;24.52;;
42006;SDS011;27696;42.704;23.304;2023-11-21T13:51:43;36.33;;;25.92;;
42006;SDS011;27696;42.704;23.304;2023-11-21T13:54:15;45.60;;;26.65;;
42006;SDS011;27696;42.704;23.304;2023-11-21T13:56:43;39.85;;;28.08;;
42006;SDS011;27696;42.704;23.304;2023-11-21T13:59:09;43.28;;;29.13;;
42006;SDS011;27696;42.704;23.304;2023-11-21T14:01:45;46.22;;;29.67;;
42006;SDS011;27696;42.704;23.304;2023-11-21T14:04:41;42.45;;;28.00;;
42006;SDS011;27696;42.704;23.304;2023-11-21T14:07:25;39.50;;;28.48;;
42006;SDS011;27696;42.704;23.304;2023-11-21T14:10:11;43.75;;;30.48;;
42006;SDS011;27696;42.704;23.304;2023-11-21T14:12:39;47.20;;;30.02;;
42006;SDS011;27696;42.704;23.304;2023-11-21T14:15:07;43.97;;;31.02;;
42006;SDS011;27696;42.704;23.304;2023-11-21T14:17:35;44.03;;;32.40;;
42006;SDS011;27696;42.704;23.304;2023-11-21T14:20:03;43.33;;;32.28;;
42006;SDS011;27696;42.704;23.304;2023-11-21T14:22:30;46.08;;;32.50;;
42006;SDS011;27696;42.704;23.304;2023-11-21T14:24:56;56.05;;;33.10;;
42006;SDS011;27696;42.704;23.304;2023-11-21T14:27:24;45.28;;;33.38;;
42006;SDS011;27696;42.704;23.304;2023-11-21T14:29:50;50.25;;;34.50;;